sensor_id;sensor_type;location;lat;lon;timestamp;pressure;altitude;pressure_sealevel;temperature;humidity
22964;BME280;11648;49.306;6.934;2023-07-31T00:01:34;98381.75;;;21.39;52.71
22964;BME280;11648;49.306;6.934;2023-07-31T00:04:00;98371.31;;;21.50;52.33
22964;BME280;11648;49.306;6.934;2023-07-31T00:06:27;98360.66;;;21.49;52.50
22964;BME280;11648;49.306;6.934;2023-07-31T00:08:54;98355.66;;;21.43;52.46
22964;BME280;11648;49.306;6.934;2023-07-31T00:11:21;98348.75;;;21.39;52.42
22964;BME280;11648;49.306;6.934;2023-07-31T00:13:47;98352.03;;;21.28;52.89
22964;BME280;11648;49.306;6.934;2023-07-31T00:16:14;98351.97;;;21.30;52.72
22964;BME280;11648;49.306;6.934;2023-07-31T00:18:41;98355.47;;;21.30;52.48
22964;BME280;11648;49.306;6.934;2023-07-31T00:21:08;98354.63;;;21.30;52.59
22964;BME280;11648;49.306;6.934;2023-07-31T00:23:34;98351.41;;;21.23;53.16
22964;BME280;11648;49.306;6.934;2023-07-31T00:26:01;98355.31;;;21.17;52.93
22964;BME280;11648;49.306;6.934;2023-07-31T00:28:28;98361.00;;;21.11;53.08
22964;BME280;11648;49.306;6.934;2023-07-31T00:30:55;98353.53;;;21.01;53.29
22964;BME280;11648;49.306;6.934;2023-07-31T00:33:25;98362.44;;;21.01;53.43
22964;BME280;11648;49.306;6.934;2023-07-31T00:35:51;98362.09;;;21.07;53.27
22964;BME280;11648;49.306;6.934;2023-07-31T00:38:18;98354.19;;;20.89;53.70
22964;BME280;11648;49.306;6.934;2023-07-31T00:40:45;98360.75;;;20.99;53.56
22964;BME280;11648;49.306;6.934;2023-07-31T00:43:12;98354.81;;;20.94;53.84
22964;BME280;11648;49.306;6.934;2023-07-31T00:45:40;98361.81;;;20.96;53.81
22964;BME280;11648;49.306;6.934;2023-07-31T00:48:07;98364.06;;;21.04;53.63
22964;BME280;11648;49.306;6.934;2023-07-31T00:50:35;98368.19;;;21.11;53.71
22964;BME280;11648;49.306;6.934;2023-07-31T00:53:02;98359.47;;;21.06;53.57
22964;BME280;11648;49.306;6.934;2023-07-31T00:55:29;98353.69;;;20.98;53.83
22964;BME280;11648;49.306;6.934;2023-07-31T00:57:56;98348.31;;;20.98;53.71
22964;BME280;11648;49.306;6.934;2023-07-31T01:00:23;98351.09;;;20.96;53.79
22964;BME280;11648;49.306;6.934;2023-07-31T01:02:50;98343.69;;;21.01;54.18
22964;BME280;11648;49.306;6.934;2023-07-31T01:05:29;98339.53;;;20.96;53.98
22964;BME280;11648;49.306;6.934;2023-07-31T01:08:12;98337.63;;;20.98;53.89
22964;BME280;11648;49.306;6.934;2023-07-31T01:10:48;98345.41;;;21.02;54.02
22964;BME280;11648;49.306;6.934;2023-07-31T01:13:17;98338.75;;;20.94;54.24
22964;BME280;11648;49.306;6.934;2023-07-31T01:15:44;98332.13;;;21.01;54.14
22964;BME280;11648;49.306;6.934;2023-07-31T01:18:11;98335.97;;;20.95;54.30
22964;BME280;11648;49.306;6.934;2023-07-31T01:20:40;98334.81;;;21.01;54.31
22964;BME280;11648;49.306;6.934;2023-07-31T01:26:11;98322.84;;;20.91;54.44
22964;BME280;11648;49.306;6.934;2023-07-31T01:28:50;98321.94;;;21.07;54.21
22964;BME280;11648;49.306;6.934;2023-07-31T01:31:23;98319.50;;;21.03;54.27
22964;BME280;11648;49.306;6.934;2023-07-31T01:33:52;98309.03;;;20.98;54.43
22964;BME280;11648;49.306;6.934;2023-07-31T01:36:22;98311.91;;;20.95;54.29
22964;BME280;11648;49.306;6.934;2023-07-31T01:38:48;98308.97;;;21.00;54.26
22964;BME280;11648;49.306;6.934;2023-07-31T01:41:17;98310.59;;;20.87;54.49
22964;BME280;11648;49.306;6.934;2023-07-31T01:43:45;98299.03;;;21.02;54.22
22964;BME280;11648;49.306;6.934;2023-07-31T01:46:12;98300.16;;;20.98;54.46
22964;BME280;11648;49.306;6.934;2023-07-31T01:48:39;98296.34;;;21.02;54.42
22964;BME280;11648;49.306;6.934;2023-07-31T01:51:06;98290.00;;;21.04;54.27
22964;BME280;11648;49.306;6.934;2023-07-31T01:53:32;98288.31;;;21.02;54.22
22964;BME280;11648;49.306;6.934;2023-07-31T01:56:00;98292.03;;;20.99;54.43
22964;BME280;11648;49.306;6.934;2023-07-31T01:58:26;98291.69;;;21.05;54.04
22964;BME280;11648;49.306;6.934;2023-07-31T02:00:53;98294.19;;;20.93;54.35
22964;BME280;11648;49.306;6.934;2023-07-31T02:03:20;98290.84;;;20.89;54.72
22964;BME280;11648;49.306;6.934;2023-07-31T02:05:48;98282.97;;;21.02;54.29
22964;BME280;11648;49.306;6.934;2023-07-31T02:08:15;98288.59;;;20.97;54.51
22964;BME280;11648;49.306;6.934;2023-07-31T02:10:42;98281.28;;;21.01;54.18
22964;BME280;11648;49.306;6.934;2023-07-31T02:13:10;98283.41;;;21.10;54.26
22964;BME280;11648;49.306;6.934;2023-07-31T02:15:37;98278.91;;;21.12;54.24
22964;BME280;11648;49.306;6.934;2023-07-31T02:18:04;98284.34;;;21.09;54.34
22964;BME280;11648;49.306;6.934;2023-07-31T02:20:34;98276.44;;;21.07;54.25
22964;BME280;11648;49.306;6.934;2023-07-31T02:23:02;98279.84;;;21.11;54.49
22964;BME280;11648;49.306;6.934;2023-07-31T02:25:29;98277.56;;;21.03;54.54
22964;BME280;11648;49.306;6.934;2023-07-31T02:27:56;98268.75;;;21.01;54.62
22964;BME280;11648;49.306;6.934;2023-07-31T02:30:23;98271.50;;;21.00;54.89
22964;BME280;11648;49.306;6.934;2023-07-31T02:32:50;98268.72;;;20.86;55.13
22964;BME280;11648;49.306;6.934;2023-07-31T02:35:16;98265.53;;;20.95;55.16
22964;BME280;11648;49.306;6.934;2023-07-31T02:37:45;98261.19;;;20.77;55.66
22964;BME280;11648;49.306;6.934;2023-07-31T02:40:12;98263.66;;;20.97;55.92
22964;BME280;11648;49.306;6.934;2023-07-31T02:42:39;98269.50;;;20.72;56.04
22964;BME280;11648;49.306;6.934;2023-07-31T02:45:06;98273.22;;;20.85;55.55
22964;BME280;11648;49.306;6.934;2023-07-31T02:47:33;98266.06;;;20.86;55.77
22964;BME280;11648;49.306;6.934;2023-07-31T02:50:04;98273.72;;;20.92;55.64
22964;BME280;11648;49.306;6.934;2023-07-31T02:52:31;98273.16;;;20.87;55.73
22964;BME280;11648;49.306;6.934;2023-07-31T02:54:58;98268.09;;;20.81;55.87
22964;BME280;11648;49.306;6.934;2023-07-31T02:57:24;98269.94;;;20.96;55.85
22964;BME280;11648;49.306;6.934;2023-07-31T02:59:51;98282.41;;;20.64;56.60
22964;BME280;11648;49.306;6.934;2023-07-31T03:02:18;98282.94;;;20.70;56.53
22964;BME280;11648;49.306;6.934;2023-07-31T03:04:45;98272.69;;;20.79;56.42
22964;BME280;11648;49.306;6.934;2023-07-31T03:07:11;98283.22;;;20.82;56.38
22964;BME280;11648;49.306;6.934;2023-07-31T03:09:38;98278.28;;;20.74;56.61
22964;BME280;11648;49.306;6.934;2023-07-31T03:12:05;98281.06;;;20.73;56.82
22964;BME280;11648;49.306;6.934;2023-07-31T03:14:32;98282.06;;;20.54;57.36
22964;BME280;11648;49.306;6.934;2023-07-31T03:16:59;98278.25;;;20.58;57.19
22964;BME280;11648;49.306;6.934;2023-07-31T03:19:26;98273.94;;;20.56;57.21
22964;BME280;11648;49.306;6.934;2023-07-31T03:21:53;98267.66;;;20.57;57.25
22964;BME280;11648;49.306;6.934;2023-07-31T03:24:19;98281.25;;;20.37;58.04
22964;BME280;11648;49.306;6.934;2023-07-31T03:26:46;98274.06;;;20.37;58.03
22964;BME280;11648;49.306;6.934;2023-07-31T03:29:13;98267.78;;;20.38;57.99
22964;BME280;11648;49.306;6.934;2023-07-31T03:31:39;98276.75;;;20.03;59.02
22964;BME280;11648;49.306;6.934;2023-07-31T03:34:06;98273.03;;;20.22;58.50
22964;BME280;11648;49.306;6.934;2023-07-31T03:36:33;98274.06;;;20.03;59.22
22964;BME280;11648;49.306;6.934;2023-07-31T03:39:00;98262.13;;;20.10;58.76
22964;BME280;11648;49.306;6.934;2023-07-31T03:41:27;98265.66;;;20.10;58.97
22964;BME280;11648;49.306;6.934;2023-07-31T03:43:53;98259.44;;;20.10;58.92
22964;BME280;11648;49.306;6.934;2023-07-31T03:46:23;98262.75;;;20.15;59.26
22964;BME280;11648;49.306;6.934;2023-07-31T03:48:51;98267.53;;;20.08;59.46
22964;BME280;11648;49.306;6.934;2023-07-31T03:51:17;98256.69;;;19.94;59.84
22964;BME280;11648;49.306;6.934;2023-07-31T03:53:44;98257.56;;;19.95;59.79
22964;BME280;11648;49.306;6.934;2023-07-31T03:56:12;98252.75;;;20.01;59.47
22964;BME280;11648;49.306;6.934;2023-07-31T03:58:39;98253.78;;;19.99;59.48
22964;BME280;11648;49.306;6.934;2023-07-31T04:01:05;98258.84;;;19.70;60.21
22964;BME280;11648;49.306;6.934;2023-07-31T04:03:32;98258.50;;;19.77;60.41
22964;BME280;11648;49.306;6.934;2023-07-31T04:05:59;98258.66;;;19.73;60.31
22964;BME280;11648;49.306;6.934;2023-07-31T04:08:25;98252.44;;;19.90;59.88
22964;BME280;11648;49.306;6.934;2023-07-31T04:10:52;98257.97;;;19.70;60.60
22964;BME280;11648;49.306;6.934;2023-07-31T04:13:19;98250.09;;;19.84;60.25
22964;BME280;11648;49.306;6.934;2023-07-31T04:15:49;98250.28;;;19.81;60.52
22964;BME280;11648;49.306;6.934;2023-07-31T04:18:17;98244.66;;;19.68;60.78
22964;BME280;11648;49.306;6.934;2023-07-31T04:20:44;98244.06;;;19.81;60.59
22964;BME280;11648;49.306;6.934;2023-07-31T04:23:11;98247.50;;;19.65;60.87
22964;BME280;11648;49.306;6.934;2023-07-31T04:25:38;98250.19;;;19.83;60.46
22964;BME280;11648;49.306;6.934;2023-07-31T04:28:05;98249.06;;;19.87;60.72
22964;BME280;11648;49.306;6.934;2023-07-31T04:30:31;98237.94;;;19.96;60.46
22964;BME280;11648;49.306;6.934;2023-07-31T04:32:58;98243.19;;;19.63;61.48
22964;BME280;11648;49.306;6.934;2023-07-31T04:35:26;98244.44;;;19.73;61.22
22964;BME280;11648;49.306;6.934;2023-07-31T04:37:53;98243.88;;;20.01;60.63
22964;BME280;11648;49.306;6.934;2023-07-31T04:40:20;98242.53;;;20.09;60.47
22964;BME280;11648;49.306;6.934;2023-07-31T04:42:47;98257.56;;;19.95;60.55
22964;BME280;11648;49.306;6.934;2023-07-31T04:45:14;98242.50;;;20.27;59.72
22964;BME280;11648;49.306;6.934;2023-07-31T04:47:41;98248.41;;;20.33;59.61
22964;BME280;11648;49.306;6.934;2023-07-31T04:50:08;98247.94;;;20.25;59.77
22964;BME280;11648;49.306;6.934;2023-07-31T04:52:34;98252.06;;;20.32;59.61
22964;BME280;11648;49.306;6.934;2023-07-31T04:55:01;98245.97;;;20.46;59.17
22964;BME280;11648;49.306;6.934;2023-07-31T04:57:28;98240.50;;;20.14;59.90
22964;BME280;11648;49.306;6.934;2023-07-31T04:59:55;98238.34;;;20.38;59.62
22964;BME280;11648;49.306;6.934;2023-07-31T05:02:22;98238.13;;;20.43;59.45
22964;BME280;11648;49.306;6.934;2023-07-31T05:04:49;98236.22;;;20.45;59.15
22964;BME280;11648;49.306;6.934;2023-07-31T05:07:15;98237.00;;;20.47;59.43
22964;BME280;11648;49.306;6.934;2023-07-31T05:09:43;98236.72;;;20.51;59.17
22964;BME280;11648;49.306;6.934;2023-07-31T05:12:10;98234.69;;;20.56;59.12
22964;BME280;11648;49.306;6.934;2023-07-31T05:14:37;98232.63;;;20.61;59.25
22964;BME280;11648;49.306;6.934;2023-07-31T05:17:04;98214.69;;;20.63;58.96
22964;BME280;11648;49.306;6.934;2023-07-31T05:19:30;98220.53;;;20.54;59.12
22964;BME280;11648;49.306;6.934;2023-07-31T05:21:57;98225.09;;;20.52;59.40
22964;BME280;11648;49.306;6.934;2023-07-31T05:24:24;98228.50;;;20.72;58.89
22964;BME280;11648;49.306;6.934;2023-07-31T05:26:51;98223.31;;;20.68;58.87
22964;BME280;11648;49.306;6.934;2023-07-31T05:29:17;98225.72;;;20.73;58.99
22964;BME280;11648;49.306;6.934;2023-07-31T05:31:44;98220.81;;;20.81;58.65
22964;BME280;11648;49.306;6.934;2023-07-31T05:34:11;98227.81;;;20.84;58.84
22964;BME280;11648;49.306;6.934;2023-07-31T05:36:38;98229.97;;;20.93;58.66
22964;BME280;11648;49.306;6.934;2023-07-31T05:39:05;98228.66;;;20.84;58.71
22964;BME280;11648;49.306;6.934;2023-07-31T05:41:35;98231.16;;;20.87;58.50
22964;BME280;11648;49.306;6.934;2023-07-31T05:44:02;98226.88;;;20.69;58.78
22964;BME280;11648;49.306;6.934;2023-07-31T05:46:29;98216.59;;;20.93;58.64
22964;BME280;11648;49.306;6.934;2023-07-31T05:48:56;98213.91;;;20.93;58.29
22964;BME280;11648;49.306;6.934;2023-07-31T05:51:22;98209.88;;;20.86;58.50
22964;BME280;11648;49.306;6.934;2023-07-31T05:53:49;98215.22;;;20.86;58.43
22964;BME280;11648;49.306;6.934;2023-07-31T05:56:16;98200.09;;;20.85;58.60
22964;BME280;11648;49.306;6.934;2023-07-31T05:58:42;98200.78;;;20.88;58.79
22964;BME280;11648;49.306;6.934;2023-07-31T06:01:09;98212.81;;;20.97;58.32
22964;BME280;11648;49.306;6.934;2023-07-31T06:03:38;98221.72;;;21.13;57.99
22964;BME280;11648;49.306;6.934;2023-07-31T06:06:05;98219.03;;;21.29;57.84
22964;BME280;11648;49.306;6.934;2023-07-31T06:08:32;98211.41;;;21.37;57.40
22964;BME280;11648;49.306;6.934;2023-07-31T06:10:59;98214.94;;;21.67;57.23
22964;BME280;11648;49.306;6.934;2023-07-31T06:13:26;98212.00;;;21.72;56.38
22964;BME280;11648;49.306;6.934;2023-07-31T06:15:53;98211.28;;;21.84;56.32
22964;BME280;11648;49.306;6.934;2023-07-31T06:18:19;98203.31;;;22.12;55.45
22964;BME280;11648;49.306;6.934;2023-07-31T06:20:46;98205.53;;;22.34;55.56
22964;BME280;11648;49.306;6.934;2023-07-31T06:23:14;98203.88;;;22.45;54.70
22964;BME280;11648;49.306;6.934;2023-07-31T06:25:40;98198.03;;;22.81;54.35
22964;BME280;11648;49.306;6.934;2023-07-31T06:28:07;98197.00;;;22.70;53.95
22964;BME280;11648;49.306;6.934;2023-07-31T06:30:34;98200.38;;;23.00;52.94
22964;BME280;11648;49.306;6.934;2023-07-31T06:33:00;98200.13;;;22.90;53.22
22964;BME280;11648;49.306;6.934;2023-07-31T06:35:27;98215.38;;;22.61;53.92
22964;BME280;11648;49.306;6.934;2023-07-31T06:37:54;98207.53;;;22.58;53.99
22964;BME280;11648;49.306;6.934;2023-07-31T06:40:22;98201.97;;;22.76;53.88
22964;BME280;11648;49.306;6.934;2023-07-31T06:42:49;98197.19;;;22.81;53.75
22964;BME280;11648;49.306;6.934;2023-07-31T06:45:15;98197.34;;;22.92;53.52
22964;BME280;11648;49.306;6.934;2023-07-31T06:47:42;98195.44;;;22.94;53.53
22964;BME280;11648;49.306;6.934;2023-07-31T06:50:12;98183.84;;;23.47;52.74
22964;BME280;11648;49.306;6.934;2023-07-31T06:52:39;98178.41;;;23.61;51.52
22964;BME280;11648;49.306;6.934;2023-07-31T06:55:24;98173.19;;;23.85;51.41
22964;BME280;11648;49.306;6.934;2023-07-31T06:57:52;98179.66;;;24.33;50.17
22964;BME280;11648;49.306;6.934;2023-07-31T07:00:21;98173.19;;;24.61;50.26
22964;BME280;11648;49.306;6.934;2023-07-31T07:02:49;98172.88;;;24.52;49.81
22964;BME280;11648;49.306;6.934;2023-07-31T07:05:17;98177.06;;;23.93;50.85
22964;BME280;11648;49.306;6.934;2023-07-31T07:07:44;98188.47;;;23.45;52.17
22964;BME280;11648;49.306;6.934;2023-07-31T07:10:11;98196.50;;;22.91;53.54
22964;BME280;11648;49.306;6.934;2023-07-31T07:12:37;98206.00;;;22.40;54.69
22964;BME280;11648;49.306;6.934;2023-07-31T07:15:05;98192.16;;;22.89;54.16
22964;BME280;11648;49.306;6.934;2023-07-31T07:17:32;98200.72;;;22.39;55.57
22964;BME280;11648;49.306;6.934;2023-07-31T07:19:59;98201.88;;;22.35;55.77
22964;BME280;11648;49.306;6.934;2023-07-31T07:22:26;98193.44;;;22.55;55.32
22964;BME280;11648;49.306;6.934;2023-07-31T07:24:54;98189.31;;;22.78;55.21
22964;BME280;11648;49.306;6.934;2023-07-31T07:27:20;98187.38;;;22.94;54.65
22964;BME280;11648;49.306;6.934;2023-07-31T07:29:50;98179.59;;;22.89;54.54
22964;BME280;11648;49.306;6.934;2023-07-31T07:32:18;98175.97;;;23.17;53.94
22964;BME280;11648;49.306;6.934;2023-07-31T07:34:45;98173.75;;;23.24;53.92
22964;BME280;11648;49.306;6.934;2023-07-31T07:37:11;98159.25;;;23.26;53.32
22964;BME280;11648;49.306;6.934;2023-07-31T07:39:38;98159.47;;;23.23;54.09
22964;BME280;11648;49.306;6.934;2023-07-31T07:42:05;98155.44;;;23.95;52.00
22964;BME280;11648;49.306;6.934;2023-07-31T07:44:32;98153.50;;;24.09;51.72
22964;BME280;11648;49.306;6.934;2023-07-31T07:46:58;98146.19;;;24.37;51.31
22964;BME280;11648;49.306;6.934;2023-07-31T07:49:25;98139.81;;;24.50;50.94
22964;BME280;11648;49.306;6.934;2023-07-31T07:51:52;98151.63;;;24.73;50.62
22964;BME280;11648;49.306;6.934;2023-07-31T07:54:18;98150.47;;;24.52;50.97
22964;BME280;11648;49.306;6.934;2023-07-31T07:56:47;98152.22;;;23.90;51.63
22964;BME280;11648;49.306;6.934;2023-07-31T07:59:14;98142.28;;;24.53;50.92
22964;BME280;11648;49.306;6.934;2023-07-31T08:01:41;98151.06;;;24.19;51.42
22964;BME280;11648;49.306;6.934;2023-07-31T08:04:08;98156.53;;;24.30;51.00
22964;BME280;11648;49.306;6.934;2023-07-31T08:06:35;98152.31;;;24.01;51.88
22964;BME280;11648;49.306;6.934;2023-07-31T08:09:01;98143.00;;;24.19;50.98
22964;BME280;11648;49.306;6.934;2023-07-31T08:11:33;98148.69;;;24.15;51.47
22964;BME280;11648;49.306;6.934;2023-07-31T08:13:59;98138.19;;;24.61;50.29
22964;BME280;11648;49.306;6.934;2023-07-31T08:16:26;98139.22;;;24.83;49.28
22964;BME280;11648;49.306;6.934;2023-07-31T08:18:53;98114.91;;;25.43;47.97
22964;BME280;11648;49.306;6.934;2023-07-31T08:21:21;98115.16;;;25.64;47.33
22964;BME280;11648;49.306;6.934;2023-07-31T08:23:48;98124.44;;;25.60;47.61
22964;BME280;11648;49.306;6.934;2023-07-31T08:26:18;98113.25;;;25.99;47.06
22964;BME280;11648;49.306;6.934;2023-07-31T08:28:45;98115.69;;;26.02;46.07
22964;BME280;11648;49.306;6.934;2023-07-31T08:31:12;98110.59;;;25.76;46.29
22964;BME280;11648;49.306;6.934;2023-07-31T08:33:40;98101.13;;;26.27;45.71
22964;BME280;11648;49.306;6.934;2023-07-31T08:36:07;98099.75;;;25.99;46.26
22964;BME280;11648;49.306;6.934;2023-07-31T08:38:33;98104.25;;;25.77;46.70
22964;BME280;11648;49.306;6.934;2023-07-31T08:41:03;98098.16;;;25.86;46.94
22964;BME280;11648;49.306;6.934;2023-07-31T08:43:30;98081.13;;;26.41;45.44
22964;BME280;11648;49.306;6.934;2023-07-31T08:45:57;98073.09;;;26.73;44.66
22964;BME280;11648;49.306;6.934;2023-07-31T08:48:25;98054.97;;;27.80;43.31
22964;BME280;11648;49.306;6.934;2023-07-31T08:50:52;98052.59;;;28.47;41.44
22964;BME280;11648;49.306;6.934;2023-07-31T08:53:19;98039.03;;;29.25;39.77
22964;BME280;11648;49.306;6.934;2023-07-31T08:55:48;98030.81;;;29.83;38.99
22964;BME280;11648;49.306;6.934;2023-07-31T08:58:15;98023.06;;;30.44;37.45
22964;BME280;11648;49.306;6.934;2023-07-31T09:00:47;98026.88;;;30.14;37.81
22964;BME280;11648;49.306;6.934;2023-07-31T09:03:18;98031.66;;;29.93;38.26
22964;BME280;11648;49.306;6.934;2023-07-31T09:05:46;98049.56;;;28.90;38.61
22964;BME280;11648;49.306;6.934;2023-07-31T09:08:17;98048.56;;;29.10;38.52
22964;BME280;11648;49.306;6.934;2023-07-31T09:10:45;98055.56;;;29.70;37.61
22964;BME280;11648;49.306;6.934;2023-07-31T09:13:13;98036.75;;;30.52;36.48
22964;BME280;11648;49.306;6.934;2023-07-31T09:15:43;98037.09;;;31.73;34.91
22964;BME280;11648;49.306;6.934;2023-07-31T09:18:11;98035.31;;;32.07;33.67
22964;BME280;11648;49.306;6.934;2023-07-31T09:20:38;98055.25;;;32.75;32.94
22964;BME280;11648;49.306;6.934;2023-07-31T09:23:12;98040.72;;;31.03;34.51
22964;BME280;11648;49.306;6.934;2023-07-31T09:25:43;98056.59;;;30.16;36.63
22964;BME280;11648;49.306;6.934;2023-07-31T09:28:11;98060.88;;;29.43;37.14
22964;BME280;11648;49.306;6.934;2023-07-31T09:33:11;98048.44;;;29.50;36.65
22964;BME280;11648;49.306;6.934;2023-07-31T09:35:38;98055.59;;;29.22;37.76
22964;BME280;11648;49.306;6.934;2023-07-31T09:38:09;98063.88;;;28.62;38.41
22964;BME280;11648;49.306;6.934;2023-07-31T09:40:38;98065.66;;;28.42;38.86
22964;BME280;11648;49.306;6.934;2023-07-31T09:43:06;98073.84;;;28.52;39.40
22964;BME280;11648;49.306;6.934;2023-07-31T09:45:35;98058.69;;;28.09;39.85
22964;BME280;11648;49.306;6.934;2023-07-31T09:50:41;98075.50;;;26.98;41.75
22964;BME280;11648;49.306;6.934;2023-07-31T09:53:08;98071.66;;;26.69;42.61
22964;BME280;11648;49.306;6.934;2023-07-31T09:55:36;98079.66;;;26.03;43.92
22964;BME280;11648;49.306;6.934;2023-07-31T09:58:05;98084.53;;;25.98;44.32
22964;BME280;11648;49.306;6.934;2023-07-31T10:00:33;98093.72;;;25.85;44.74
22964;BME280;11648;49.306;6.934;2023-07-31T10:03:04;98088.69;;;25.80;45.02
22964;BME280;11648;49.306;6.934;2023-07-31T10:05:44;98090.75;;;25.77;45.09
22964;BME280;11648;49.306;6.934;2023-07-31T10:08:14;98097.91;;;25.19;45.00
22964;BME280;11648;49.306;6.934;2023-07-31T10:10:43;98100.88;;;25.27;45.71
22964;BME280;11648;49.306;6.934;2023-07-31T10:13:11;98111.78;;;24.66;46.59
22964;BME280;11648;49.306;6.934;2023-07-31T10:15:38;98104.13;;;24.85;46.47
22964;BME280;11648;49.306;6.934;2023-07-31T10:18:06;98097.94;;;24.83;46.71
22964;BME280;11648;49.306;6.934;2023-07-31T10:20:33;98097.75;;;24.86;46.41
22964;BME280;11648;49.306;6.934;2023-07-31T10:23:01;98088.41;;;25.02;46.64
22964;BME280;11648;49.306;6.934;2023-07-31T10:25:29;98082.69;;;25.07;47.01
22964;BME280;11648;49.306;6.934;2023-07-31T10:27:57;98089.09;;;25.17;46.82
22964;BME280;11648;49.306;6.934;2023-07-31T10:30:29;98075.72;;;25.39;46.01
22964;BME280;11648;49.306;6.934;2023-07-31T10:32:57;98078.38;;;25.63;45.49
22964;BME280;11648;49.306;6.934;2023-07-31T10:35:24;98071.94;;;26.32;44.53
22964;BME280;11648;49.306;6.934;2023-07-31T10:37:52;98066.16;;;26.15;44.55
22964;BME280;11648;49.306;6.934;2023-07-31T10:40:24;98070.19;;;26.53;44.46
22964;BME280;11648;49.306;6.934;2023-07-31T10:42:53;98064.22;;;26.39;44.46
22964;BME280;11648;49.306;6.934;2023-07-31T10:45:32;98065.59;;;26.22;44.37
22964;BME280;11648;49.306;6.934;2023-07-31T10:48:00;98062.50;;;26.27;44.90
22964;BME280;11648;49.306;6.934;2023-07-31T10:50:29;98061.88;;;26.23;44.63
22964;BME280;11648;49.306;6.934;2023-07-31T10:52:57;98059.91;;;26.03;45.51
22964;BME280;11648;49.306;6.934;2023-07-31T10:55:31;98058.56;;;26.31;44.87
22964;BME280;11648;49.306;6.934;2023-07-31T11:00:32;98061.97;;;26.55;44.83
22964;BME280;11648;49.306;6.934;2023-07-31T11:03:04;98057.09;;;26.38;44.65
22964;BME280;11648;49.306;6.934;2023-07-31T11:05:59;98057.94;;;26.05;45.24
22964;BME280;11648;49.306;6.934;2023-07-31T11:16:08;98052.41;;;25.95;45.83
22964;BME280;11648;49.306;6.934;2023-07-31T11:18:35;98059.03;;;25.80;46.35
22964;BME280;11648;49.306;6.934;2023-07-31T11:21:03;98063.28;;;25.61;46.97
22964;BME280;11648;49.306;6.934;2023-07-31T11:23:30;98062.63;;;25.46;46.80
22964;BME280;11648;49.306;6.934;2023-07-31T11:25:59;98061.91;;;25.20;47.47
22964;BME280;11648;49.306;6.934;2023-07-31T11:28:26;98057.69;;;25.05;47.89
22964;BME280;11648;49.306;6.934;2023-07-31T11:30:57;98068.06;;;24.98;48.03
22964;BME280;11648;49.306;6.934;2023-07-31T11:33:24;98060.03;;;24.86;48.09
22964;BME280;11648;49.306;6.934;2023-07-31T11:35:51;98058.88;;;24.77;48.48
22964;BME280;11648;49.306;6.934;2023-07-31T11:38:28;98057.69;;;24.81;48.48
22964;BME280;11648;49.306;6.934;2023-07-31T11:40:58;98054.22;;;24.92;48.50
22964;BME280;11648;49.306;6.934;2023-07-31T11:43:26;98052.25;;;24.94;48.62
22964;BME280;11648;49.306;6.934;2023-07-31T11:45:55;98047.16;;;25.02;48.32
22964;BME280;11648;49.306;6.934;2023-07-31T11:48:30;98046.09;;;25.16;48.04
22964;BME280;11648;49.306;6.934;2023-07-31T11:51:05;98035.34;;;25.27;47.08
22964;BME280;11648;49.306;6.934;2023-07-31T11:53:43;98038.06;;;25.27;46.58
22964;BME280;11648;49.306;6.934;2023-07-31T11:56:13;98049.31;;;25.21;46.17
22964;BME280;11648;49.306;6.934;2023-07-31T11:58:41;98051.56;;;25.03;46.65
22964;BME280;11648;49.306;6.934;2023-07-31T12:01:09;98054.69;;;25.21;46.70
22964;BME280;11648;49.306;6.934;2023-07-31T12:03:37;98071.19;;;24.69;48.74
22964;BME280;11648;49.306;6.934;2023-07-31T12:06:04;98053.81;;;24.49;48.35
22964;BME280;11648;49.306;6.934;2023-07-31T12:08:31;98045.88;;;24.71;47.77
22964;BME280;11648;49.306;6.934;2023-07-31T12:11:09;98040.66;;;25.04;47.45
22964;BME280;11648;49.306;6.934;2023-07-31T12:13:41;98035.63;;;25.35;46.54
22964;BME280;11648;49.306;6.934;2023-07-31T12:16:08;98026.56;;;25.36;46.23
22964;BME280;11648;49.306;6.934;2023-07-31T12:18:37;98026.66;;;25.23;46.26
22964;BME280;11648;49.306;6.934;2023-07-31T12:21:06;98016.78;;;25.35;46.22
22964;BME280;11648;49.306;6.934;2023-07-31T12:23:34;98022.25;;;25.33;46.42
22964;BME280;11648;49.306;6.934;2023-07-31T12:28:41;98023.47;;;25.29;46.55
22964;BME280;11648;49.306;6.934;2023-07-31T12:31:10;98022.38;;;25.21;46.34
22964;BME280;11648;49.306;6.934;2023-07-31T12:33:39;98028.81;;;25.18;46.40
22964;BME280;11648;49.306;6.934;2023-07-31T12:36:08;98022.38;;;25.21;46.50
22964;BME280;11648;49.306;6.934;2023-07-31T12:38:35;98021.13;;;25.14;46.36
22964;BME280;11648;49.306;6.934;2023-07-31T12:41:02;98024.81;;;25.24;46.51
22964;BME280;11648;49.306;6.934;2023-07-31T12:43:29;98026.19;;;25.40;46.57
22964;BME280;11648;49.306;6.934;2023-07-31T12:45:56;98027.53;;;25.35;47.63
22964;BME280;11648;49.306;6.934;2023-07-31T12:48:23;98025.22;;;25.41;46.76
22964;BME280;11648;49.306;6.934;2023-07-31T12:50:50;98023.69;;;25.15;46.73
22964;BME280;11648;49.306;6.934;2023-07-31T12:53:16;98026.53;;;24.90;47.53
22964;BME280;11648;49.306;6.934;2023-07-31T12:55:43;98030.00;;;24.79;48.06
22964;BME280;11648;49.306;6.934;2023-07-31T12:58:10;98029.75;;;24.71;48.96
22964;BME280;11648;49.306;6.934;2023-07-31T13:00:37;98023.13;;;24.51;49.68
22964;BME280;11648;49.306;6.934;2023-07-31T13:03:04;98017.06;;;24.61;49.48
22964;BME280;11648;49.306;6.934;2023-07-31T13:05:31;97996.81;;;24.68;49.50
22964;BME280;11648;49.306;6.934;2023-07-31T13:07:58;97980.13;;;24.86;49.06
22964;BME280;11648;49.306;6.934;2023-07-31T13:10:25;97976.41;;;25.11;48.87
22964;BME280;11648;49.306;6.934;2023-07-31T13:12:53;97980.75;;;25.25;48.45
22964;BME280;11648;49.306;6.934;2023-07-31T13:15:20;97965.25;;;25.73;47.41
22964;BME280;11648;49.306;6.934;2023-07-31T13:17:47;97954.94;;;26.11;46.56
22964;BME280;11648;49.306;6.934;2023-07-31T13:20:14;97935.72;;;26.79;45.36
22964;BME280;11648;49.306;6.934;2023-07-31T13:22:40;97927.09;;;27.27;43.67
22964;BME280;11648;49.306;6.934;2023-07-31T13:25:11;97918.56;;;27.73;43.13